createdAt,value
2022-09-30T00:02:16.162Z,99514.01
2022-09-30T00:04:48.686Z,99508.02
2022-09-30T00:07:20.929Z,99511.50
2022-09-30T00:09:53.302Z,99507.55
2022-09-30T00:12:27.604Z,99504.95
2022-09-30T00:15:01.726Z,99501.33
2022-09-30T00:17:34.540Z,99504.10
2022-09-30T00:20:09.858Z,99508.09
2022-09-30T00:22:43.146Z,99510.52
2022-09-30T00:25:16.383Z,99509.66
2022-09-30T00:27:48.617Z,99512.95
2022-09-30T00:30:20.974Z,99514.15
2022-09-30T00:32:53.253Z,99513.95
2022-09-30T00:35:25.624Z,99517.73
2022-09-30T00:38:00.433Z,99519.12
2022-09-30T00:40:32.994Z,99516.03
2022-09-30T00:43:07.045Z,99519.00
2022-09-30T00:45:39.390Z,99521.42
2022-09-30T00:48:17.936Z,99516.76
2022-09-30T00:50:55.613Z,99513.64
2022-09-30T00:53:33.253Z,99513.30
2022-09-30T00:56:09.186Z,99516.74
2022-09-30T00:58:47.423Z,99519.14
2022-09-30T01:01:20.392Z,99520.34
2022-09-30T01:03:56.526Z,99517.22
2022-09-30T01:06:28.804Z,99511.16
2022-09-30T01:09:02.327Z,99512.54
2022-09-30T01:11:34.870Z,99518.08
2022-09-30T01:14:12.948Z,99512.51
2022-09-30T01:16:56.949Z,99511.98
2022-09-30T01:19:49.371Z,99512.45
2022-09-30T01:22:33.333Z,99510.67
2022-09-30T01:25:26.075Z,99504.95
2022-09-30T01:28:38.426Z,99503.40
2022-09-30T01:31:25.078Z,99509.96
2022-09-30T01:34:07.571Z,99517.25
2022-09-30T01:36:54.643Z,99518.11
2022-09-30T01:39:38.823Z,99520.15
2022-09-30T01:42:19.840Z,99521.34
2022-09-30T01:45:03.572Z,99520.31
2022-09-30T01:47:44.128Z,99527.95
2022-09-30T01:50:22.942Z,99529.19
2022-09-30T01:53:05.076Z,99533.25
2022-09-30T01:55:44.139Z,99537.29
2022-09-30T01:58:21.035Z,99541.85
2022-09-30T02:00:54.755Z,99546.55
2022-09-30T02:03:33.955Z,99547.52
2022-09-30T02:06:09.299Z,99550.70
2022-09-30T02:08:47.402Z,99553.70
2022-09-30T02:11:25.155Z,99553.21
2022-09-30T02:14:03.069Z,99555.45
2022-09-30T02:16:41.249Z,99561.91
2022-09-30T02:19:20.572Z,99565.19
2022-09-30T02:21:58.054Z,99573.62
2022-09-30T02:24:37.052Z,99575.82
2022-09-30T02:27:14.495Z,99575.20
2022-09-30T02:29:51.024Z,99569.92
2022-09-30T02:32:29.135Z,99572.64
2022-09-30T02:35:04.008Z,99576.92
2022-09-30T02:37:42.268Z,99581.47
2022-09-30T02:40:19.620Z,99576.89
2022-09-30T02:42:51.967Z,99578.52
2022-09-30T02:45:25.742Z,99583.77
2022-09-30T02:48:14.854Z,99581.78
2022-09-30T02:50:53.068Z,99579.66
2022-09-30T02:53:33.378Z,99583.11
2022-09-30T02:56:14.544Z,99588.98
2022-09-30T02:58:48.817Z,99595.12
2022-09-30T03:01:21.519Z,99595.55
2022-09-30T03:03:56.734Z,99595.80
2022-09-30T03:06:29.608Z,99591.42
2022-09-30T03:09:01.740Z,99590.79
2022-09-30T03:11:34.460Z,99592.03
2022-09-30T03:14:32.197Z,99596.23
2022-09-30T03:17:27.961Z,99596.77
2022-09-30T03:20:22.124Z,99591.29
2022-09-30T03:23:23.200Z,99588.68
2022-09-30T03:26:05.127Z,99591.34
2022-09-30T03:28:44.779Z,99598.36
2022-09-30T03:31:24.341Z,99603.00
2022-09-30T03:34:02.430Z,99604.66
2022-09-30T03:36:40.569Z,99610.17
2022-09-30T03:39:24.959Z,99606.77
2022-09-30T03:42:06.743Z,99599.52
2022-09-30T03:44:43.775Z,99608.90
2022-09-30T03:47:20.060Z,99604.88
2022-09-30T03:49:57.262Z,99601.96
2022-09-30T03:52:31.733Z,99604.90
2022-09-30T03:55:08.147Z,99605.05
2022-09-30T03:57:40.822Z,99603.98
2022-09-30T04:00:14.781Z,99603.09
2022-09-30T04:02:46.932Z,99601.17
2022-09-30T04:05:19.119Z,99603.09
2022-09-30T04:07:51.162Z,99603.10
2022-09-30T04:10:23.485Z,99607.99
2022-09-30T04:12:57.899Z,99611.66
2022-09-30T04:15:30.109Z,99616.66
2022-09-30T04:18:02.893Z,99618.74
2022-09-30T04:20:35.819Z,99624.09
2022-09-30T04:23:07.930Z,99631.40
2022-09-30T04:25:40.123Z,99635.10
2022-09-30T04:28:12.188Z,99645.50
2022-09-30T04:30:44.347Z,99651.79
2022-09-30T04:33:17.265Z,99657.38
2022-09-30T04:35:49.305Z,99657.95
2022-09-30T04:38:21.342Z,99655.55
2022-09-30T04:40:54.773Z,99659.71
2022-09-30T04:43:27.386Z,99664.70
2022-09-30T04:45:59.738Z,99666.78
2022-09-30T04:48:32.491Z,99662.80
2022-09-30T04:51:04.674Z,99664.99
2022-09-30T04:53:37.390Z,99662.36
2022-09-30T04:56:10.304Z,99657.86
2022-09-30T04:58:42.389Z,99661.13
2022-09-30T05:01:16.944Z,99669.23
2022-09-30T05:03:49.422Z,99672.54
2022-09-30T05:06:22.080Z,99676.19
2022-09-30T05:08:54.708Z,99685.20
2022-09-30T05:11:27.852Z,99688.02
2022-09-30T05:13:59.989Z,99699.95
2022-09-30T05:16:32.157Z,99705.80
2022-09-30T05:19:04.881Z,99705.38
2022-09-30T05:21:37.377Z,99695.29
2022-09-30T05:24:09.597Z,99691.12
2022-09-30T05:26:41.674Z,99686.24
2022-09-30T05:29:14.320Z,99686.89
2022-09-30T05:31:46.850Z,99689.23
2022-09-30T05:34:19.084Z,99689.20
2022-09-30T05:36:51.302Z,99692.41
2022-09-30T05:39:23.557Z,99698.72
2022-09-30T05:41:57.138Z,99702.25
2022-09-30T05:44:29.205Z,99706.96
2022-09-30T05:47:01.478Z,99711.27
2022-09-30T05:49:34.920Z,99714.81
2022-09-30T05:52:07.895Z,99713.99
2022-09-30T05:54:40.100Z,99713.39
2022-09-30T05:57:13.664Z,99710.59
2022-09-30T05:59:45.832Z,99709.73
2022-09-30T06:02:18.011Z,99709.89
2022-09-30T06:04:50.704Z,99709.81
2022-09-30T06:07:23.014Z,99713.92
2022-09-30T06:09:55.206Z,99713.55
2022-09-30T06:12:28.849Z,99723.88
2022-09-30T06:15:00.933Z,99724.89
2022-09-30T06:17:33.247Z,99723.23
2022-09-30T06:20:06.408Z,99723.61
2022-09-30T06:22:39.231Z,99723.93
2022-09-30T06:25:12.818Z,99727.02
2022-09-30T06:27:47.803Z,99727.52
2022-09-30T06:30:20.098Z,99730.71
2022-09-30T06:32:54.235Z,99730.71
2022-09-30T06:35:27.808Z,99734.17
2022-09-30T06:38:00.035Z,99734.38
2022-09-30T06:40:32.153Z,99725.13
2022-09-30T06:43:05.754Z,99731.01
2022-09-30T06:45:39.055Z,99733.39
2022-09-30T06:48:12.864Z,99730.73
2022-09-30T06:50:58.438Z,99731.14
2022-09-30T06:53:35.614Z,99734.53
2022-09-30T06:56:08.349Z,99731.34
2022-09-30T06:58:41.590Z,99729.36
2022-09-30T07:01:15.699Z,99733.89
2022-09-30T07:03:54.017Z,99735.40
2022-09-30T07:06:27.369Z,99735.47
2022-09-30T07:09:00.109Z,99736.27
2022-09-30T07:11:32.489Z,99738.27
2022-09-30T07:14:05.588Z,99740.98
2022-09-30T07:16:38.757Z,99741.48
2022-09-30T07:19:12.251Z,99740.52
2022-09-30T07:21:44.771Z,99733.02
2022-09-30T07:24:17.212Z,99730.17
2022-09-30T07:26:49.601Z,99729.16
2022-09-30T07:29:21.989Z,99734.90
2022-09-30T07:31:55.419Z,99743.74
2022-09-30T07:34:35.602Z,99743.60
2022-09-30T07:37:07.924Z,99742.33
2022-09-30T07:39:40.028Z,99746.41
2022-09-30T07:42:12.192Z,99749.26
2022-09-30T07:44:45.092Z,99751.22
2022-09-30T07:47:18.860Z,99755.40
2022-09-30T07:49:51.213Z,99759.13
2022-09-30T07:52:23.293Z,99761.25
2022-09-30T07:54:55.947Z,99767.25
2022-09-30T07:57:28.228Z,99769.23
2022-09-30T08:00:08.141Z,99771.52
2022-09-30T08:02:52.704Z,99779.93
2022-09-30T08:05:24.796Z,99783.03
2022-09-30T08:07:57.195Z,99788.79
2022-09-30T08:10:29.415Z,99793.31
2022-09-30T08:13:04.264Z,99798.19
2022-09-30T08:15:38.783Z,99798.89
2022-09-30T08:18:10.968Z,99798.88
2022-09-30T08:20:43.031Z,99799.66
2022-09-30T08:23:15.393Z,99802.48
2022-09-30T08:25:47.965Z,99806.95
2022-09-30T08:28:20.269Z,99804.25
2022-09-30T08:30:52.382Z,99807.52
2022-09-30T08:33:24.621Z,99807.74
2022-09-30T08:35:56.714Z,99811.80
2022-09-30T08:38:28.968Z,99813.21
2022-09-30T08:41:13.317Z,99814.06
2022-09-30T08:43:59.573Z,99816.92
2022-09-30T08:46:39.480Z,99823.66
2022-09-30T08:49:28.442Z,99823.84
2022-09-30T08:52:03.190Z,99828.23
2022-09-30T08:54:40.242Z,99829.77
2022-09-30T08:57:14.488Z,99828.40
2022-09-30T08:59:49.465Z,99826.40
2022-09-30T09:02:27.798Z,99828.91
2022-09-30T09:05:03.120Z,99835.22
2022-09-30T09:07:43.626Z,99834.72
2022-09-30T09:10:29.648Z,99838.91
2022-09-30T09:13:12.653Z,99846.31
2022-09-30T09:16:01.179Z,99844.10
2022-09-30T09:18:43.498Z,99846.79
2022-09-30T09:21:23.840Z,99850.63
2022-09-30T09:23:58.819Z,99850.98
2022-09-30T09:26:36.587Z,99855.09
2022-09-30T09:29:26.869Z,99853.50
2022-09-30T09:32:02.158Z,99853.11
2022-09-30T09:34:38.239Z,99849.95
2022-09-30T09:37:21.961Z,99848.12
2022-09-30T09:40:11.175Z,99843.58
2022-09-30T09:43:02.157Z,99850.14
2022-09-30T09:45:39.734Z,99845.80
2022-09-30T09:48:17.523Z,99840.37
2022-09-30T09:50:59.642Z,99839.89
2022-09-30T09:53:45.587Z,99839.30
2022-09-30T09:56:21.542Z,99842.84
2022-09-30T09:59:12.692Z,99838.90
2022-09-30T10:01:46.865Z,99834.88
2022-09-30T10:04:24.661Z,99836.27
2022-09-30T10:07:01.155Z,99829.61
2022-09-30T10:09:36.181Z,99829.92
2022-09-30T10:12:37.081Z,99828.55
2022-09-30T10:15:24.539Z,99825.29
2022-09-30T10:18:01.020Z,99823.04
2022-09-30T10:20:37.824Z,99820.05
2022-09-30T10:23:19.782Z,99821.51
2022-09-30T10:26:17.690Z,99824.22
2022-09-30T10:28:49.818Z,99820.02
2022-09-30T10:31:27.521Z,99825.14
2022-09-30T10:34:11.050Z,99829.23
2022-09-30T10:36:44.975Z,99834.39
2022-09-30T10:39:25.068Z,99843.13
2022-09-30T10:42:08.658Z,99843.27
2022-09-30T10:44:48.925Z,99845.20
2022-09-30T10:47:26.229Z,99846.39
2022-09-30T10:50:04.732Z,99844.75
2022-09-30T10:52:44.805Z,99843.39
2022-09-30T10:55:33.242Z,99845.06
2022-09-30T10:58:26.624Z,99843.67
2022-09-30T11:01:06.063Z,99844.59
2022-09-30T11:03:48.536Z,99842.35
2022-09-30T11:06:22.705Z,99841.24
2022-09-30T11:09:03.442Z,99843.42
2022-09-30T11:11:43.153Z,99844.41
2022-09-30T11:14:30.826Z,99845.02
2022-09-30T11:17:20.490Z,99845.94
2022-09-30T11:20:07.772Z,99843.88
2022-09-30T11:22:48.860Z,99842.82
2022-09-30T11:25:28.606Z,99841.04
2022-09-30T11:28:29.775Z,99842.31
2022-09-30T11:31:09.850Z,99842.52
2022-09-30T11:33:58.387Z,99841.77
2022-09-30T11:36:39.875Z,99842.30
2022-09-30T11:39:35.262Z,99844.69
2022-09-30T11:42:15.127Z,99841.77
2022-09-30T11:44:48.138Z,99842.79
2022-09-30T11:47:39.555Z,99839.48
2022-09-30T11:50:37.424Z,99840.98
2022-09-30T11:53:21.129Z,99839.73
2022-09-30T11:56:18.076Z,99839.82
2022-09-30T11:58:52.989Z,99837.77
2022-09-30T12:01:31.082Z,99843.19
2022-09-30T12:04:10.089Z,99838.66
2022-09-30T12:06:45.744Z,99838.88
2022-09-30T12:09:23.591Z,99839.95
2022-09-30T12:12:02.191Z,99838.05
2022-09-30T12:14:42.435Z,99841.79
2022-09-30T12:17:27.987Z,99841.86
2022-09-30T12:20:04.465Z,99837.58
2022-09-30T12:22:42.856Z,99836.19
2022-09-30T12:25:20.115Z,99833.85
2022-09-30T12:27:58.157Z,99832.60
2022-09-30T12:30:32.068Z,99830.00
2022-09-30T12:33:29.080Z,99831.75
2022-09-30T12:36:20.126Z,99833.14
2022-09-30T12:39:15.829Z,99833.52
2022-09-30T12:42:07.876Z,99834.45
2022-09-30T12:45:22.664Z,99834.64
2022-09-30T12:47:57.720Z,99829.65
2022-09-30T12:50:36.096Z,99827.70
2022-09-30T12:53:18.793Z,99828.49
2022-09-30T12:55:52.776Z,99827.70
2022-09-30T12:58:31.184Z,99828.83
2022-09-30T13:01:07.975Z,99830.58
2022-09-30T13:03:53.801Z,99826.19
2022-09-30T13:06:28.260Z,99826.64
2022-09-30T13:09:22.431Z,99827.61
2022-09-30T13:12:25.246Z,99826.27
2022-09-30T13:15:39.787Z,99820.86
2022-09-30T13:18:48.179Z,99820.40
2022-09-30T13:21:24.437Z,99819.59
2022-09-30T13:23:58.045Z,99817.54
2022-09-30T13:26:46.413Z,99815.12
2022-09-30T13:29:39.332Z,99817.20
2022-09-30T13:32:12.734Z,99817.96
2022-09-30T13:35:20.896Z,99819.36
2022-09-30T13:38:16.759Z,99818.55
2022-09-30T13:41:08.000Z,99821.88
2022-09-30T13:43:45.161Z,99819.23
2022-09-30T13:46:29.974Z,99812.83
2022-09-30T13:49:08.207Z,99814.89
2022-09-30T13:51:40.933Z,99815.43
2022-09-30T13:54:21.240Z,99815.52
2022-09-30T13:56:54.807Z,99811.24
2022-09-30T13:59:49.373Z,99810.58
2022-09-30T14:02:43.530Z,99811.16
2022-09-30T14:05:46.302Z,99808.05
2022-09-30T14:08:36.817Z,99816.63
2022-09-30T14:11:22.224Z,99812.71
2022-09-30T14:14:09.553Z,99812.89
2022-09-30T14:16:56.435Z,99814.58
2022-09-30T14:19:44.548Z,99817.95
2022-09-30T14:22:19.199Z,99820.67
2022-09-30T14:24:53.021Z,99819.54
2022-09-30T14:27:46.724Z,99823.60
2022-09-30T14:30:23.220Z,99826.86
2022-09-30T14:32:55.756Z,99832.27
2022-09-30T14:36:20.323Z,99830.64
2022-09-30T14:39:03.861Z,99830.84
2022-09-30T14:41:36.267Z,99832.17
2022-09-30T14:44:14.270Z,99835.75
2022-09-30T14:46:48.248Z,99835.14
2022-09-30T14:49:29.126Z,99832.41
2022-09-30T14:52:03.321Z,99835.08
2022-09-30T14:54:35.987Z,99834.80
2022-09-30T14:57:19.800Z,99836.88
2022-09-30T14:59:52.028Z,99833.86
2022-09-30T15:02:24.537Z,99834.21
2022-09-30T15:05:01.477Z,99833.42
2022-09-30T15:07:34.563Z,99832.74
2022-09-30T15:10:07.679Z,99833.73
2022-09-30T15:12:43.863Z,99832.86
2022-09-30T15:15:34.312Z,99837.52
2022-09-30T15:18:33.894Z,99835.39
2022-09-30T15:21:11.608Z,99836.75
2022-09-30T15:23:47.492Z,99839.89
2022-09-30T15:26:20.860Z,99842.02
2022-09-30T15:28:54.957Z,99848.64
2022-09-30T15:31:30.005Z,99846.58
2022-09-30T15:34:08.861Z,99847.63
2022-09-30T15:36:41.298Z,99840.61
2022-09-30T15:39:22.874Z,99840.75
2022-09-30T15:41:55.771Z,99843.48
2022-09-30T15:44:40.282Z,99844.61
2022-09-30T15:47:13.217Z,99844.58
2022-09-30T15:49:50.564Z,99848.32
2022-09-30T15:52:37.817Z,99849.61
2022-09-30T15:55:38.801Z,99847.30
2022-09-30T15:58:36.410Z,99850.81
2022-09-30T16:01:19.868Z,99852.17
2022-09-30T16:03:55.912Z,99853.11
2022-09-30T16:06:35.330Z,99855.89
2022-09-30T16:09:19.504Z,99858.36
2022-09-30T16:12:02.968Z,99862.73
2022-09-30T16:14:45.004Z,99865.03
2022-09-30T16:17:24.308Z,99867.66
2022-09-30T16:19:58.842Z,99865.09
2022-09-30T16:22:51.912Z,99867.56
2022-09-30T16:25:28.375Z,99873.52
2022-09-30T16:28:02.432Z,99876.55
2022-09-30T16:30:34.872Z,99879.36
2022-09-30T16:33:08.434Z,99886.02
2022-09-30T16:35:42.783Z,99888.70
2022-09-30T16:38:17.851Z,99892.56
2022-09-30T16:40:50.188Z,99894.90
2022-09-30T16:43:26.399Z,99898.05
2022-09-30T16:46:00.674Z,99903.68
2022-09-30T16:48:35.051Z,99906.17
2022-09-30T16:51:12.745Z,99905.95
2022-09-30T16:53:47.888Z,99910.16
2022-09-30T16:56:21.310Z,99915.66
2022-09-30T16:58:54.164Z,99915.95
2022-09-30T17:01:28.342Z,99913.41
2022-09-30T17:04:00.843Z,99915.50
2022-09-30T17:06:34.958Z,99912.91
2022-09-30T17:09:08.396Z,99913.43
2022-09-30T17:11:41.206Z,99913.77
2022-09-30T17:14:13.500Z,99913.05
2022-09-30T17:16:46.754Z,99916.98
2022-09-30T17:19:20.214Z,99920.20
2022-09-30T17:21:53.187Z,99913.84
2022-09-30T17:24:30.123Z,99910.18
2022-09-30T17:27:01.276Z,99911.39
2022-09-30T17:29:33.830Z,99911.27
2022-09-30T17:32:06.749Z,99910.55
2022-09-30T17:34:40.590Z,99909.45
2022-09-30T17:37:14.982Z,99914.31
2022-09-30T17:39:48.423Z,99917.71
2022-09-30T17:42:38.739Z,99919.34
2022-09-30T17:45:12.696Z,99915.90
2022-09-30T17:47:46.892Z,99913.63
2022-09-30T17:50:22.426Z,99915.41
2022-09-30T17:52:56.040Z,99925.00
2022-09-30T17:55:29.295Z,99922.58
2022-09-30T17:58:06.811Z,99922.25
2022-09-30T18:00:40.121Z,99931.34
2022-09-30T18:03:13.410Z,99936.06
2022-09-30T18:05:49.398Z,99939.70
2022-09-30T18:08:22.998Z,99932.39
2022-09-30T18:10:57.487Z,99935.89
2022-09-30T18:13:30.985Z,99935.39
2022-09-30T18:16:08.297Z,99934.94
2022-09-30T18:18:42.625Z,99933.27
2022-09-30T18:21:18.129Z,99929.19
2022-09-30T18:23:51.450Z,99927.68
2022-09-30T18:26:26.165Z,99925.04
2022-09-30T18:29:01.195Z,99921.83
2022-09-30T18:31:37.748Z,99920.19
2022-09-30T18:34:19.352Z,99920.98
2022-09-30T18:36:54.837Z,99915.90
2022-09-30T18:39:41.692Z,99918.44
2022-09-30T18:42:16.071Z,99919.17
2022-09-30T18:44:56.293Z,99916.75
2022-09-30T18:47:30.895Z,99919.02
2022-09-30T18:50:04.464Z,99927.64
2022-09-30T18:52:41.158Z,99934.98
2022-09-30T18:55:14.231Z,99933.98
2022-09-30T18:57:50.794Z,99933.09
2022-09-30T19:00:25.583Z,99931.83
2022-09-30T19:03:00.453Z,99931.28
2022-09-30T19:05:33.447Z,99926.71
2022-09-30T19:08:10.721Z,99920.77
2022-09-30T19:10:42.891Z,99921.79
2022-09-30T19:13:20.090Z,99923.77
2022-09-30T19:15:53.692Z,99926.84
2022-09-30T19:18:35.589Z,99930.42
2022-09-30T19:21:11.472Z,99932.05
2022-09-30T19:23:46.109Z,99935.62
2022-09-30T19:26:23.335Z,99936.46
2022-09-30T19:28:56.942Z,99935.60
2022-09-30T19:31:31.348Z,99935.11
2022-09-30T19:34:06.467Z,99936.80
2022-09-30T19:36:50.061Z,99934.35
2022-09-30T19:39:28.807Z,99925.46
2022-09-30T19:42:14.549Z,99923.33
2022-09-30T19:44:48.345Z,99921.16
2022-09-30T19:47:22.767Z,99924.98
2022-09-30T19:49:59.676Z,99938.41
2022-09-30T19:52:50.928Z,99948.92
2022-09-30T19:55:27.895Z,99956.98
2022-09-30T19:58:08.416Z,99957.60
2022-09-30T20:00:41.979Z,99951.54
2022-09-30T20:03:15.647Z,99952.89
2022-09-30T20:05:48.472Z,99950.30
2022-09-30T20:08:24.422Z,99946.64
2022-09-30T20:11:02.110Z,99940.73
2022-09-30T20:13:40.242Z,99934.99
2022-09-30T20:16:17.007Z,99928.38
2022-09-30T20:18:49.839Z,99918.98
2022-09-30T20:21:22.671Z,99921.98
2022-09-30T20:23:56.724Z,99927.07
2022-09-30T20:26:31.240Z,99936.23
2022-09-30T20:29:04.138Z,99938.67
2022-09-30T20:31:37.944Z,99942.16
2022-09-30T20:34:12.620Z,99936.48
2022-09-30T20:36:48.200Z,99930.27
2022-09-30T20:39:21.717Z,99932.21
2022-09-30T20:41:56.229Z,99933.66
2022-09-30T20:44:28.938Z,99933.71
2022-09-30T20:47:02.347Z,99932.63
2022-09-30T20:49:35.279Z,99930.77
2022-09-30T20:52:08.477Z,99929.54
2022-09-30T20:54:40.869Z,99931.56
2022-09-30T20:57:13.209Z,99934.73
2022-09-30T20:59:46.847Z,99930.93
2022-09-30T21:02:24.624Z,99926.64
2022-09-30T21:04:57.857Z,99925.78
2022-09-30T21:07:31.219Z,99924.43
2022-09-30T21:10:04.141Z,99915.94
2022-09-30T21:12:36.919Z,99915.77
2022-09-30T21:15:12.431Z,99913.35
2022-09-30T21:17:46.164Z,99913.16
2022-09-30T21:20:19.020Z,99911.45
2022-09-30T21:22:53.576Z,99909.34
2022-09-30T21:25:26.450Z,99907.11
2022-09-30T21:28:01.383Z,99912.56
2022-09-30T21:30:34.645Z,99916.23
2022-09-30T21:33:08.246Z,99914.69
2022-09-30T21:35:40.621Z,99917.02
2022-09-30T21:38:16.439Z,99908.98
2022-09-30T21:40:49.082Z,99906.83
2022-09-30T21:43:21.441Z,99901.44
2022-09-30T21:46:01.986Z,99908.23
2022-09-30T21:48:35.341Z,99907.20
2022-09-30T21:51:09.921Z,99902.55
2022-09-30T21:53:43.468Z,99908.14
2022-09-30T21:56:15.897Z,99913.24
2022-09-30T21:58:49.219Z,99908.97
2022-09-30T22:01:21.704Z,99909.67
2022-09-30T22:03:54.367Z,99907.61
2022-09-30T22:06:26.861Z,99904.87
2022-09-30T22:09:01.805Z,99901.45
2022-09-30T22:11:34.695Z,99906.16
2022-09-30T22:14:07.548Z,99907.89
2022-09-30T22:16:40.032Z,99913.21
2022-09-30T22:19:12.632Z,99912.95
2022-09-30T22:21:44.777Z,99910.83
2022-09-30T22:24:17.419Z,99911.63
2022-09-30T22:26:50.566Z,99911.16
2022-09-30T22:29:23.292Z,99920.65
2022-09-30T22:31:55.709Z,99918.24
2022-09-30T22:34:45.502Z,99915.09
2022-09-30T22:37:35.216Z,99915.05
2022-09-30T22:40:08.795Z,99913.96
2022-09-30T22:42:41.300Z,99910.69
2022-09-30T22:45:13.944Z,99912.59
2022-09-30T22:47:46.491Z,99917.08
2022-09-30T22:50:19.754Z,99920.23
2022-09-30T22:52:52.459Z,99918.92
2022-09-30T22:55:26.244Z,99921.25
2022-09-30T22:57:58.821Z,99920.50
2022-09-30T23:00:31.601Z,99916.90
2022-09-30T23:03:04.585Z,99920.77
2022-09-30T23:05:37.507Z,99921.22
2022-09-30T23:08:10.009Z,99923.58
2022-09-30T23:10:50.829Z,99928.02
2022-09-30T23:13:24.120Z,99931.79
2022-09-30T23:16:01.014Z,99930.95
2022-09-30T23:18:33.873Z,99926.31
2022-09-30T23:21:08.953Z,99922.80
2022-09-30T23:23:41.974Z,99919.55
2022-09-30T23:26:16.449Z,99926.70
2022-09-30T23:28:49.451Z,99924.77
2022-09-30T23:31:21.796Z,99922.46
2022-09-30T23:33:55.512Z,99920.23
2022-09-30T23:36:31.100Z,99916.17
2022-09-30T23:39:09.411Z,99911.08
2022-09-30T23:41:43.657Z,99907.55
2022-09-30T23:44:18.098Z,99901.88
2022-09-30T23:47:08.405Z,99900.14
2022-09-30T23:49:42.151Z,99899.38
2022-09-30T23:52:15.292Z,99898.10
2022-09-30T23:54:47.371Z,99904.91
2022-09-30T23:57:19.449Z,99905.67
2022-09-30T23:59:51.525Z,99904.70
